createdAt,value
2023-02-11T00:01:29.624Z,100813.00
2023-02-11T00:04:01.730Z,100807.00
2023-02-11T00:06:34.714Z,100801.00
2023-02-11T00:09:06.817Z,100795.00
2023-02-11T00:11:37.790Z,100799.00
2023-02-11T00:14:11.025Z,100796.00
2023-02-11T00:16:41.974Z,100792.00
2023-02-11T00:19:12.852Z,100792.00
2023-02-11T00:21:43.722Z,100793.00
2023-02-11T00:24:14.611Z,100798.00
2023-02-11T00:26:45.491Z,100800.00
2023-02-11T00:29:16.455Z,100795.00
2023-02-11T00:31:47.595Z,100794.00
2023-02-11T00:34:18.644Z,100790.00
2023-02-11T00:36:49.510Z,100791.00
2023-02-11T00:39:20.394Z,100776.00
2023-02-11T00:41:51.795Z,100788.00
2023-02-11T00:44:22.700Z,100789.00
2023-02-11T00:46:53.640Z,100778.00
2023-02-11T00:49:25.313Z,100781.00
2023-02-11T00:51:56.209Z,100787.00
2023-02-11T00:54:29.871Z,100785.00
2023-02-11T00:57:00.954Z,100808.00
2023-02-11T00:59:31.894Z,100786.00
2023-02-11T01:02:02.849Z,100788.00
2023-02-11T01:04:33.805Z,100791.00
2023-02-11T01:07:04.733Z,100775.00
2023-02-11T01:09:38.849Z,100779.00
2023-02-11T01:12:09.711Z,100774.00
2023-02-11T01:14:40.634Z,100759.00
2023-02-11T01:17:12.109Z,100763.00
2023-02-11T01:19:43.151Z,100742.00
2023-02-11T01:22:14.289Z,100749.00
2023-02-11T01:24:45.290Z,100742.00
2023-02-11T01:27:16.216Z,100741.00
2023-02-11T01:29:47.102Z,100736.00
2023-02-11T01:32:18.091Z,100735.00
2023-02-11T01:34:50.120Z,100721.00
2023-02-11T01:37:20.978Z,100731.00
2023-02-11T01:39:52.233Z,100742.00
2023-02-11T01:42:24.068Z,100740.00
2023-02-11T01:44:57.532Z,100737.00
2023-02-11T01:47:28.379Z,100742.00
2023-02-11T01:50:01.756Z,100726.00
2023-02-11T01:52:37.290Z,100748.00
2023-02-11T01:55:31.502Z,100736.00
2023-02-11T01:58:05.604Z,100740.00
2023-02-11T02:00:39.020Z,100739.00
2023-02-11T02:03:22.557Z,100735.00
2023-02-11T02:06:28.716Z,100731.00
2023-02-11T02:09:11.591Z,100719.00
2023-02-11T02:11:42.564Z,100714.00
2023-02-11T02:14:13.567Z,100707.00
2023-02-11T02:16:45.522Z,100717.00
2023-02-11T02:19:57.866Z,100718.00
2023-02-11T02:22:49.586Z,100718.00
2023-02-11T02:26:01.258Z,100722.00
2023-02-11T02:28:44.261Z,100704.00
2023-02-11T02:31:24.419Z,100709.00
2023-02-11T02:34:09.322Z,100704.00
2023-02-11T02:36:49.322Z,100705.00
2023-02-11T02:39:32.694Z,100704.00
2023-02-11T02:42:05.355Z,100693.00
2023-02-11T02:44:36.282Z,100707.00
2023-02-11T02:47:08.261Z,100695.00
2023-02-11T02:49:39.136Z,100678.00
2023-02-11T02:52:31.880Z,100670.00
2023-02-11T02:55:12.278Z,100664.00
2023-02-11T02:58:00.457Z,100662.00
2023-02-11T03:01:12.799Z,100679.00
2023-02-11T03:04:02.270Z,100679.00
2023-02-11T03:06:51.917Z,100670.00
2023-02-11T03:09:32.176Z,100681.00
2023-02-11T03:12:04.206Z,100667.00
2023-02-11T03:14:36.850Z,100657.00
2023-02-11T03:17:10.144Z,100659.00
2023-02-11T03:19:44.656Z,100661.00
2023-02-11T03:22:28.375Z,100661.00
2023-02-11T03:25:00.721Z,100650.00
2023-02-11T03:27:41.838Z,100662.00
2023-02-11T03:30:26.591Z,100647.00
2023-02-11T03:33:52.623Z,100646.00
2023-02-11T03:36:46.114Z,100648.00
2023-02-11T03:39:24.803Z,100655.00
2023-02-11T03:41:58.619Z,100659.00
2023-02-11T03:44:45.575Z,100655.00
2023-02-11T03:47:20.943Z,100658.00
2023-02-11T03:49:53.654Z,100658.00
2023-02-11T03:52:26.397Z,100655.00
2023-02-11T03:55:00.964Z,100655.00
2023-02-11T03:57:34.279Z,100660.00
2023-02-11T04:00:06.670Z,100658.00
2023-02-11T04:02:38.559Z,100662.00
2023-02-11T04:05:13.279Z,100658.00
2023-02-11T04:07:44.186Z,100665.00
2023-02-11T04:10:15.450Z,100669.00
2023-02-11T04:12:46.334Z,100686.00
2023-02-11T04:15:17.871Z,100673.00
2023-02-11T04:17:48.969Z,100672.00
2023-02-11T04:20:19.966Z,100683.00
2023-02-11T04:22:50.827Z,100683.00
2023-02-11T04:25:21.708Z,100670.00
2023-02-11T04:27:52.568Z,100679.00
2023-02-11T04:30:23.526Z,100679.00
2023-02-11T04:32:54.484Z,100673.00
2023-02-11T04:35:25.688Z,100683.00
2023-02-11T04:37:56.737Z,100686.00
2023-02-11T04:40:27.711Z,100675.00
2023-02-11T04:42:58.715Z,100662.00
2023-02-11T04:45:29.590Z,100684.00
2023-02-11T04:48:03.318Z,100669.00
2023-02-11T04:50:34.249Z,100662.00
2023-02-11T04:53:05.091Z,100653.00
2023-02-11T04:55:36.605Z,100655.00
2023-02-11T04:58:07.425Z,100665.00
2023-02-11T05:00:38.331Z,100660.00
2023-02-11T05:03:09.186Z,100662.00
2023-02-11T05:05:42.406Z,100662.00
2023-02-11T05:08:13.667Z,100664.00
2023-02-11T05:10:48.102Z,100652.00
2023-02-11T05:13:19.154Z,100651.00
2023-02-11T05:15:50.648Z,100640.00
2023-02-11T05:18:22.340Z,100634.00
2023-02-11T05:20:53.217Z,100625.00
2023-02-11T05:23:24.131Z,100613.00
2023-02-11T05:25:55.000Z,100624.00
2023-02-11T05:28:25.944Z,100604.00
2023-02-11T05:30:57.127Z,100611.00
2023-02-11T05:33:28.452Z,100607.00
2023-02-11T05:36:06.001Z,100609.00
2023-02-11T05:38:37.738Z,100609.00
2023-02-11T05:41:09.854Z,100627.00
2023-02-11T05:43:40.963Z,100610.00
2023-02-11T05:46:11.908Z,100613.00
2023-02-11T05:48:43.016Z,100599.00
2023-02-11T05:51:13.864Z,100603.00
2023-02-11T05:53:44.736Z,100601.00
2023-02-11T05:56:15.659Z,100594.00
2023-02-11T05:58:46.556Z,100603.00
2023-02-11T06:01:17.491Z,100599.00
2023-02-11T06:03:50.068Z,100596.00
2023-02-11T06:06:21.047Z,100615.00
2023-02-11T06:08:51.992Z,100618.00
2023-02-11T06:11:22.969Z,100622.00
2023-02-11T06:13:53.941Z,100632.00
2023-02-11T06:16:24.982Z,100635.00
2023-02-11T06:18:56.595Z,100642.00
2023-02-11T06:21:42.473Z,100628.00
2023-02-11T06:24:15.442Z,100625.00
2023-02-11T06:26:47.209Z,100625.00
2023-02-11T06:29:18.039Z,100629.00
2023-02-11T06:31:49.030Z,100624.00
2023-02-11T06:34:19.948Z,100639.00
2023-02-11T06:36:50.843Z,100620.00
2023-02-11T06:39:21.811Z,100619.00
2023-02-11T06:41:52.705Z,100625.00
2023-02-11T06:44:23.830Z,100621.00
2023-02-11T06:46:54.810Z,100628.00
2023-02-11T06:49:25.656Z,100635.00
2023-02-11T06:51:56.605Z,100628.00
2023-02-11T06:54:27.496Z,100630.00
2023-02-11T06:56:58.431Z,100633.00
2023-02-11T06:59:29.352Z,100632.00
2023-02-11T07:02:00.260Z,100638.00
2023-02-11T07:04:31.158Z,100631.00
2023-02-11T07:07:02.092Z,100636.00
2023-02-11T07:09:33.100Z,100636.00
2023-02-11T07:12:04.486Z,100636.00
2023-02-11T07:14:35.359Z,100636.00
2023-02-11T07:17:06.506Z,100653.00
2023-02-11T07:19:37.450Z,100641.00
2023-02-11T07:22:08.584Z,100633.00
2023-02-11T07:24:39.531Z,100641.00
2023-02-11T07:27:10.452Z,100633.00
2023-02-11T07:29:42.787Z,100616.00
2023-02-11T07:32:14.472Z,100622.00
2023-02-11T07:34:45.564Z,100663.00
2023-02-11T07:37:16.532Z,100646.00
2023-02-11T07:39:47.372Z,100641.00
2023-02-11T07:42:18.297Z,100645.00
2023-02-11T07:44:50.529Z,100647.00
2023-02-11T07:47:21.733Z,100639.00
2023-02-11T07:49:56.108Z,100627.00
2023-02-11T07:52:31.013Z,100635.00
2023-02-11T07:55:04.729Z,100632.00
2023-02-11T07:57:36.237Z,100635.00
2023-02-11T08:00:07.614Z,100619.00
2023-02-11T08:02:38.498Z,100622.00
2023-02-11T08:05:09.436Z,100614.00
2023-02-11T08:07:40.303Z,100608.00
2023-02-11T08:10:11.257Z,100597.00
2023-02-11T08:12:42.095Z,100607.00
2023-02-11T08:15:13.454Z,100607.00
2023-02-11T08:17:44.324Z,100613.00
2023-02-11T08:20:15.637Z,100623.00
2023-02-11T08:22:46.574Z,100617.00
2023-02-11T08:25:17.662Z,100620.00
2023-02-11T08:27:48.506Z,100618.00
2023-02-11T08:30:19.845Z,100628.00
2023-02-11T08:32:51.118Z,100622.00
2023-02-11T08:35:22.032Z,100629.00
2023-02-11T08:37:53.298Z,100622.00
2023-02-11T08:40:25.314Z,100619.00
2023-02-11T08:42:56.242Z,100619.00
2023-02-11T08:45:27.269Z,100618.00
2023-02-11T08:47:58.168Z,100621.00
2023-02-11T08:50:29.082Z,100607.00
2023-02-11T08:53:00.095Z,100601.00
2023-02-11T08:55:31.135Z,100600.00
2023-02-11T08:58:02.012Z,100599.00
2023-02-11T09:00:33.202Z,100600.00
2023-02-11T09:03:04.280Z,100608.00
2023-02-11T09:05:35.198Z,100616.00
2023-02-11T09:08:06.192Z,100625.00
2023-02-11T09:10:37.816Z,100626.00
2023-02-11T09:13:09.999Z,100628.00
2023-02-11T09:15:40.935Z,100630.00
2023-02-11T09:18:11.777Z,100619.00
2023-02-11T09:20:42.640Z,100612.00
2023-02-11T09:23:13.797Z,100615.00
2023-02-11T09:25:44.706Z,100606.00
2023-02-11T09:28:15.954Z,100595.00
2023-02-11T09:30:47.153Z,100594.00
2023-02-11T09:33:18.049Z,100595.00
2023-02-11T09:35:49.018Z,100592.00
2023-02-11T09:38:19.900Z,100587.00
2023-02-11T09:40:51.056Z,100576.00
2023-02-11T09:43:27.502Z,100581.00
2023-02-11T09:45:59.320Z,100583.00
2023-02-11T09:48:41.858Z,100586.00
2023-02-11T09:51:47.299Z,100593.00
2023-02-11T09:54:37.549Z,100596.00
2023-02-11T09:57:26.591Z,100593.00
2023-02-11T09:59:59.135Z,100605.00
2023-02-11T10:02:56.825Z,100603.00
2023-02-11T10:05:48.291Z,100600.00
2023-02-11T10:09:17.190Z,100603.00
2023-02-11T10:12:03.573Z,100615.00
2023-02-11T10:15:02.785Z,100608.00
2023-02-11T10:17:42.585Z,100605.00
2023-02-11T10:20:59.513Z,100602.00
2023-02-11T10:23:37.168Z,100599.00
2023-02-11T10:26:15.451Z,100608.00
2023-02-11T10:28:51.125Z,100605.00
2023-02-11T10:31:50.140Z,100607.00
2023-02-11T10:34:20.987Z,100591.00
2023-02-11T10:36:51.888Z,100599.00
2023-02-11T10:39:26.732Z,100604.00
2023-02-11T10:42:05.472Z,100600.00
2023-02-11T10:44:49.445Z,100598.00
2023-02-11T10:47:28.623Z,100592.00
2023-02-11T10:50:03.704Z,100577.00
2023-02-11T10:52:34.634Z,100565.00
2023-02-11T10:55:18.300Z,100560.00
2023-02-11T10:57:59.697Z,100555.00
2023-02-11T11:00:37.198Z,100556.00
2023-02-11T11:03:20.894Z,100550.00
2023-02-11T11:06:04.986Z,100546.00
2023-02-11T11:08:48.954Z,100537.00
2023-02-11T11:11:23.147Z,100524.00
2023-02-11T11:13:53.979Z,100546.00
2023-02-11T11:16:36.300Z,100520.00
2023-02-11T11:19:07.176Z,100526.00
2023-02-11T11:21:47.068Z,100525.00
2023-02-11T11:24:44.790Z,100527.00
2023-02-11T11:27:24.551Z,100527.00
2023-02-11T11:29:56.737Z,100533.00
2023-02-11T11:32:33.077Z,100529.00
2023-02-11T11:35:22.045Z,100530.00
2023-02-11T11:38:01.983Z,100520.00
2023-02-11T11:40:35.692Z,100524.00
2023-02-11T11:43:23.138Z,100517.00
2023-02-11T11:45:57.975Z,100521.00
2023-02-11T11:48:37.156Z,100520.00
2023-02-11T11:51:12.215Z,100520.00
2023-02-11T11:54:12.532Z,100512.00
2023-02-11T11:56:57.243Z,100515.00
2023-02-11T11:59:30.478Z,100512.00
2023-02-11T12:02:41.361Z,100521.00
2023-02-11T12:05:17.484Z,100515.00
2023-02-11T12:08:15.844Z,100515.00
2023-02-11T12:11:24.049Z,100514.00
2023-02-11T12:14:27.322Z,100513.00
2023-02-11T12:17:42.764Z,100515.00
2023-02-11T12:20:38.880Z,100515.00
2023-02-11T12:23:37.462Z,100514.00
2023-02-11T12:26:20.697Z,100506.00
2023-02-11T12:29:34.226Z,100503.00
2023-02-11T12:32:42.445Z,100516.00
2023-02-11T12:35:27.580Z,100511.00
2023-02-11T12:38:48.282Z,100517.00
2023-02-11T12:42:03.282Z,100516.00
2023-02-11T12:45:17.961Z,100513.00
2023-02-11T12:48:26.961Z,100520.00
2023-02-11T12:51:39.485Z,100513.00
2023-02-11T12:54:18.480Z,100513.00
2023-02-11T12:57:04.985Z,100504.00
2023-02-11T12:59:39.044Z,100509.00
2023-02-11T13:02:35.109Z,100501.00
2023-02-11T13:05:32.448Z,100493.00
2023-02-11T13:08:13.379Z,100486.00
2023-02-11T13:10:51.402Z,100471.00
2023-02-11T13:14:18.928Z,100480.00
2023-02-11T13:16:51.771Z,100476.00
2023-02-11T13:19:39.159Z,100473.00
2023-02-11T13:22:47.974Z,100477.00
2023-02-11T13:25:28.276Z,100475.00
2023-02-11T13:28:50.285Z,100480.00
2023-02-11T13:31:21.370Z,100475.00
2023-02-11T13:33:53.237Z,100476.00
2023-02-11T13:36:28.420Z,100476.00
2023-02-11T13:39:01.765Z,100471.00
2023-02-11T13:41:42.201Z,100477.00
2023-02-11T13:44:15.492Z,100469.00
2023-02-11T13:47:02.268Z,100476.00
2023-02-11T13:49:40.982Z,100482.00
2023-02-11T13:52:38.940Z,100470.00
2023-02-11T13:55:21.491Z,100469.00
2023-02-11T13:58:07.753Z,100459.00
2023-02-11T14:00:38.732Z,100466.00
2023-02-11T14:03:30.852Z,100466.00
2023-02-11T14:06:29.356Z,100467.00
2023-02-11T14:09:11.527Z,100455.00
2023-02-11T14:11:50.219Z,100464.00
2023-02-11T14:14:28.833Z,100455.00
2023-02-11T14:16:59.981Z,100448.00
2023-02-11T14:19:49.487Z,100447.00
2023-02-11T14:22:31.801Z,100447.00
2023-02-11T14:25:05.570Z,100445.00
2023-02-11T14:27:41.436Z,100456.00
2023-02-11T14:30:34.560Z,100457.00
2023-02-11T14:33:52.273Z,100467.00
2023-02-11T14:36:43.781Z,100460.00
2023-02-11T14:39:25.490Z,100457.00
2023-02-11T14:41:57.194Z,100460.00
2023-02-11T14:44:31.861Z,100463.00
2023-02-11T14:47:03.254Z,100470.00
2023-02-11T14:49:39.315Z,100472.00
2023-02-11T14:52:34.103Z,100476.00
2023-02-11T14:55:23.742Z,100476.00
2023-02-11T14:58:18.950Z,100478.00
2023-02-11T15:01:03.340Z,100482.00
2023-02-11T15:03:43.071Z,100492.00
2023-02-11T15:06:23.754Z,100491.00
2023-02-11T15:09:13.235Z,100489.00
2023-02-11T15:11:47.969Z,100502.00
2023-02-11T15:14:26.447Z,100481.00
2023-02-11T15:17:03.773Z,100480.00
2023-02-11T15:19:41.072Z,100497.00
2023-02-11T15:22:27.406Z,100498.00
2023-02-11T15:25:11.025Z,100502.00
2023-02-11T15:27:54.035Z,100508.00
2023-02-11T15:30:34.199Z,100506.00
2023-02-11T15:33:06.815Z,100501.00
2023-02-11T15:35:41.086Z,100494.00
2023-02-11T15:38:13.862Z,100510.00
2023-02-11T15:41:07.396Z,100519.00
2023-02-11T15:43:52.952Z,100517.00
2023-02-11T15:46:24.537Z,100512.00
2023-02-11T15:48:55.818Z,100513.00
2023-02-11T15:51:35.540Z,100511.00
2023-02-11T15:54:22.638Z,100510.00
2023-02-11T15:57:01.642Z,100518.00
2023-02-11T15:59:52.355Z,100530.00
2023-02-11T16:02:33.352Z,100518.00
2023-02-11T16:05:08.662Z,100521.00
2023-02-11T16:07:50.318Z,100526.00
2023-02-11T16:10:35.309Z,100523.00
2023-02-11T16:13:06.096Z,100533.00
2023-02-11T16:16:05.720Z,100531.00
2023-02-11T16:19:02.153Z,100527.00
2023-02-11T16:21:45.353Z,100535.00
2023-02-11T16:24:30.660Z,100541.00
2023-02-11T16:27:14.977Z,100539.00
2023-02-11T16:29:48.844Z,100540.00
2023-02-11T16:32:23.786Z,100545.00
2023-02-11T16:34:59.093Z,100543.00
2023-02-11T16:37:30.016Z,100555.00
2023-02-11T16:40:00.864Z,100554.00
2023-02-11T16:42:31.725Z,100569.00
2023-02-11T16:45:03.320Z,100565.00
2023-02-11T16:47:35.703Z,100571.00
2023-02-11T16:50:18.948Z,100566.00
2023-02-11T16:52:50.172Z,100576.00
2023-02-11T16:55:22.272Z,100574.00
2023-02-11T16:57:53.198Z,100570.00
2023-02-11T17:00:24.528Z,100577.00
2023-02-11T17:02:55.717Z,100577.00
2023-02-11T17:05:27.067Z,100576.00
2023-02-11T17:07:58.152Z,100568.00
2023-02-11T17:10:30.815Z,100586.00
2023-02-11T17:13:01.770Z,100587.00
2023-02-11T17:15:32.918Z,100587.00
2023-02-11T17:18:04.121Z,100578.00
2023-02-11T17:20:35.041Z,100586.00
2023-02-11T17:23:05.955Z,100586.00
2023-02-11T17:25:37.453Z,100577.00
2023-02-11T17:28:12.162Z,100586.00
2023-02-11T17:30:44.153Z,100574.00
2023-02-11T17:33:15.083Z,100574.00
2023-02-11T17:35:47.377Z,100577.00
2023-02-11T17:38:18.319Z,100577.00
2023-02-11T17:40:58.964Z,100581.00
2023-02-11T17:43:29.902Z,100573.00
2023-02-11T17:46:00.914Z,100577.00
2023-02-11T17:48:31.859Z,100591.00
2023-02-11T17:51:02.786Z,100601.00
2023-02-11T17:53:33.677Z,100590.00
2023-02-11T17:56:07.243Z,100604.00
2023-02-11T17:58:38.152Z,100606.00
2023-02-11T18:01:09.514Z,100608.00
2023-02-11T18:03:40.398Z,100607.00
2023-02-11T18:06:11.833Z,100622.00
2023-02-11T18:08:43.129Z,100611.00
2023-02-11T18:11:16.412Z,100613.00
2023-02-11T18:13:52.681Z,100613.00
2023-02-11T18:16:25.769Z,100621.00
2023-02-11T18:18:58.549Z,100622.00
2023-02-11T18:21:29.611Z,100632.00
2023-02-11T18:24:06.045Z,100615.00
2023-02-11T18:26:37.730Z,100628.00
2023-02-11T18:29:08.802Z,100623.00
2023-02-11T18:31:39.852Z,100628.00
2023-02-11T18:34:12.694Z,100626.00
2023-02-11T18:36:43.632Z,100632.00
2023-02-11T18:39:14.599Z,100635.00
2023-02-11T18:41:46.557Z,100638.00
2023-02-11T18:44:22.102Z,100641.00
2023-02-11T18:46:53.709Z,100626.00
2023-02-11T18:49:24.643Z,100633.00
2023-02-11T18:51:55.627Z,100647.00
2023-02-11T18:54:26.586Z,100631.00
2023-02-11T18:56:57.458Z,100631.00
2023-02-11T18:59:28.572Z,100634.00
2023-02-11T19:01:59.604Z,100632.00
2023-02-11T19:04:30.560Z,100633.00
2023-02-11T19:07:03.795Z,100634.00
2023-02-11T19:09:34.976Z,100631.00
2023-02-11T19:12:07.997Z,100632.00
2023-02-11T19:14:39.163Z,100637.00
2023-02-11T19:17:12.487Z,100638.00
2023-02-11T19:19:43.420Z,100631.00
2023-02-11T19:22:14.404Z,100633.00
2023-02-11T19:24:46.442Z,100629.00
2023-02-11T19:27:17.381Z,100633.00
2023-02-11T19:29:48.548Z,100640.00
2023-02-11T19:32:19.422Z,100632.00
2023-02-11T19:34:51.687Z,100636.00
2023-02-11T19:37:22.616Z,100636.00
2023-02-11T19:39:53.444Z,100632.00
2023-02-11T19:42:27.577Z,100639.00
2023-02-11T19:44:58.627Z,100636.00
2023-02-11T19:47:29.511Z,100666.00
2023-02-11T19:50:00.427Z,100634.00
2023-02-11T19:52:31.666Z,100620.00
2023-02-11T19:55:02.519Z,100623.00
2023-02-11T19:57:33.450Z,100625.00
2023-02-11T20:00:06.365Z,100628.00
2023-02-11T20:02:39.312Z,100627.00
2023-02-11T20:05:10.204Z,100644.00
2023-02-11T20:07:41.097Z,100630.00
2023-02-11T20:10:12.110Z,100630.00
2023-02-11T20:12:42.995Z,100635.00
2023-02-11T20:15:13.926Z,100632.00
2023-02-11T20:17:44.958Z,100623.00
2023-02-11T20:20:15.975Z,100627.00
2023-02-11T20:22:46.892Z,100628.00
2023-02-11T20:25:17.956Z,100627.00
2023-02-11T20:27:48.824Z,100630.00
2023-02-11T20:30:21.563Z,100628.00
2023-02-11T20:32:52.563Z,100628.00
2023-02-11T20:35:23.723Z,100620.00
2023-02-11T20:37:54.625Z,100627.00
2023-02-11T20:40:25.495Z,100622.00
2023-02-11T20:42:56.764Z,100619.00
2023-02-11T20:45:27.597Z,100626.00
2023-02-11T20:47:58.480Z,100625.00
2023-02-11T20:50:29.733Z,100634.00
2023-02-11T20:53:00.817Z,100636.00
2023-02-11T20:55:32.240Z,100635.00
2023-02-11T20:58:03.324Z,100645.00
2023-02-11T21:00:37.103Z,100643.00
2023-02-11T21:03:07.993Z,100645.00
2023-02-11T21:05:38.907Z,100643.00
2023-02-11T21:08:09.757Z,100636.00
2023-02-11T21:10:40.682Z,100637.00
2023-02-11T21:13:11.611Z,100651.00
2023-02-11T21:15:42.506Z,100650.00
2023-02-11T21:18:13.435Z,100653.00
2023-02-11T21:20:44.301Z,100649.00
2023-02-11T21:23:15.311Z,100646.00
2023-02-11T21:25:46.397Z,100657.00
2023-02-11T21:28:17.339Z,100659.00
2023-02-11T21:30:51.189Z,100653.00
2023-02-11T21:33:23.501Z,100655.00
2023-02-11T21:36:03.617Z,100665.00
2023-02-11T21:38:34.802Z,100663.00
2023-02-11T21:41:06.802Z,100662.00
2023-02-11T21:43:37.709Z,100657.00
2023-02-11T21:46:15.349Z,100668.00
2023-02-11T21:48:46.881Z,100659.00
2023-02-11T21:51:22.357Z,100663.00
2023-02-11T21:54:01.201Z,100663.00
2023-02-11T21:56:33.888Z,100677.00
2023-02-11T21:59:04.871Z,100671.00
2023-02-11T22:01:36.897Z,100675.00
2023-02-11T22:04:07.764Z,100668.00
2023-02-11T22:06:39.028Z,100674.00
2023-02-11T22:09:11.100Z,100665.00
2023-02-11T22:11:42.008Z,100668.00
2023-02-11T22:14:12.844Z,100667.00
2023-02-11T22:16:45.920Z,100675.00
2023-02-11T22:19:17.325Z,100674.00
2023-02-11T22:21:48.239Z,100684.00
2023-02-11T22:24:19.228Z,100682.00
2023-02-11T22:26:50.088Z,100678.00
2023-02-11T22:29:21.008Z,100706.00
2023-02-11T22:31:51.924Z,100693.00
2023-02-11T22:34:22.827Z,100684.00
2023-02-11T22:36:53.746Z,100696.00
2023-02-11T22:39:24.728Z,100691.00
2023-02-11T22:41:56.672Z,100710.00
2023-02-11T22:44:27.642Z,100688.00
2023-02-11T22:46:58.532Z,100682.00
2023-02-11T22:49:29.460Z,100675.00
2023-02-11T22:52:00.388Z,100667.00
2023-02-11T22:54:31.445Z,100667.00
2023-02-11T22:57:02.375Z,100671.00
2023-02-11T22:59:33.252Z,100684.00
2023-02-11T23:02:04.266Z,100677.00
2023-02-11T23:04:35.221Z,100689.00
2023-02-11T23:07:06.103Z,100692.00
2023-02-11T23:09:37.004Z,100682.00
2023-02-11T23:12:07.938Z,100678.00
2023-02-11T23:14:38.808Z,100676.00
2023-02-11T23:17:09.684Z,100679.00
2023-02-11T23:19:40.541Z,100672.00
2023-02-11T23:22:11.460Z,100667.00
2023-02-11T23:24:42.333Z,100673.00
2023-02-11T23:27:13.580Z,100668.00
2023-02-11T23:29:44.456Z,100661.00
2023-02-11T23:32:15.336Z,100669.00
2023-02-11T23:34:46.259Z,100665.00
2023-02-11T23:37:17.149Z,100686.00
2023-02-11T23:39:47.982Z,100695.00
2023-02-11T23:42:18.863Z,100690.00
2023-02-11T23:44:49.699Z,100691.00
2023-02-11T23:47:20.602Z,100684.00
2023-02-11T23:49:51.435Z,100692.00
2023-02-11T23:52:22.333Z,100694.00
2023-02-11T23:54:53.160Z,100693.00
2023-02-11T23:57:24.081Z,100698.00
2023-02-11T23:59:55.018Z,100696.00
